createdAt,value
2022-08-02T00:01:02.064Z,100185.53
2022-08-02T00:03:29.846Z,100209.22
2022-08-02T00:05:58.380Z,100217.25
2022-08-02T00:08:25.961Z,100233.03
2022-08-02T00:10:53.615Z,100248.00
2022-08-02T00:13:21.302Z,100270.13
2022-08-02T00:15:48.911Z,100292.38
2022-08-02T00:18:16.633Z,100297.00
2022-08-02T00:20:44.570Z,100297.19
2022-08-02T00:23:12.104Z,100291.41
2022-08-02T00:25:54.318Z,100286.22
2022-08-02T00:28:27.984Z,100281.41
2022-08-02T00:30:58.381Z,100263.66
2022-08-02T00:34:28.373Z,100250.13
2022-08-02T00:36:15.021Z,100238.31
2022-08-02T00:38:43.227Z,100216.00
2022-08-02T00:41:16.739Z,100200.25
2022-08-02T00:43:45.303Z,100190.34
2022-08-02T00:46:14.285Z,100166.69
2022-08-02T00:48:43.191Z,100131.56
2022-08-02T00:51:12.108Z,100106.63
2022-08-02T00:53:40.197Z,100071.38
2022-08-02T00:56:08.239Z,100042.44
2022-08-02T00:58:35.992Z,100040.53
2022-08-02T01:01:06.642Z,100089.13
2022-08-02T01:03:35.589Z,100150.88
2022-08-02T01:06:18.207Z,100207.09
2022-08-02T01:08:45.789Z,100242.75
2022-08-02T01:11:14.078Z,100267.00
2022-08-02T01:13:42.329Z,100276.56
2022-08-02T01:16:19.312Z,100276.56
2022-08-02T01:18:53.863Z,100285.44
2022-08-02T01:21:40.194Z,100281.63
2022-08-02T01:24:26.512Z,100271.22
2022-08-02T01:27:05.586Z,100263.75
2022-08-02T01:29:43.771Z,100270.06
2022-08-02T01:32:14.948Z,100280.34
2022-08-02T01:34:44.407Z,100292.75
2022-08-02T01:37:19.166Z,100297.09
2022-08-02T01:39:51.115Z,100299.94
2022-08-02T01:42:21.664Z,100293.75
2022-08-02T01:44:51.222Z,100277.34
2022-08-02T01:47:24.563Z,100248.06
2022-08-02T01:49:54.793Z,100241.84
2022-08-02T01:52:26.441Z,100256.25
2022-08-02T01:55:57.620Z,100269.06
2022-08-02T01:58:30.170Z,100272.00
2022-08-02T02:00:59.880Z,100261.59
2022-08-02T02:03:28.096Z,100245.94
2022-08-02T02:05:58.069Z,100230.88
2022-08-02T02:08:29.553Z,100229.47
2022-08-02T02:12:09.456Z,100224.78
2022-08-02T02:13:47.814Z,100218.31
2022-08-02T02:16:16.342Z,100209.81
2022-08-02T02:18:45.136Z,100204.34
2022-08-02T02:21:14.012Z,100198.66
2022-08-02T02:23:43.625Z,100198.34
2022-08-02T02:26:17.518Z,100210.78
2022-08-02T02:28:57.615Z,100221.50
2022-08-02T02:31:26.810Z,100229.81
2022-08-02T02:34:03.239Z,100235.75
2022-08-02T02:36:33.029Z,100240.09
2022-08-02T02:39:03.067Z,100245.31
2022-08-02T02:41:30.932Z,100248.38
2022-08-02T02:44:02.440Z,100275.34
2022-08-02T02:46:32.373Z,100301.13
2022-08-02T02:49:01.099Z,100331.97
2022-08-02T02:51:30.138Z,100360.75
2022-08-02T02:54:30.249Z,100354.25
2022-08-02T02:56:47.273Z,100352.81
2022-08-02T02:59:16.490Z,100341.84
2022-08-02T03:01:57.230Z,100326.63
2022-08-02T03:04:56.226Z,100310.41
2022-08-02T03:07:15.919Z,100309.25
2022-08-02T03:09:44.153Z,100326.03
2022-08-02T03:12:12.452Z,100343.50
2022-08-02T03:14:43.986Z,100349.41
2022-08-02T03:17:11.980Z,100343.50
2022-08-02T03:19:39.557Z,100354.50
2022-08-02T03:22:07.118Z,100365.22
2022-08-02T03:24:34.672Z,100360.19
2022-08-02T03:27:02.432Z,100355.50
2022-08-02T03:29:34.328Z,100361.28
2022-08-02T03:32:02.428Z,100357.91
2022-08-02T03:34:30.236Z,100362.28
2022-08-02T03:36:58.718Z,100339.84
2022-08-02T03:39:27.347Z,100327.59
2022-08-02T03:41:55.538Z,100320.41
2022-08-02T03:44:23.749Z,100309.94
2022-08-02T03:46:53.175Z,100307.44
2022-08-02T03:49:21.213Z,100306.28
2022-08-02T03:51:49.257Z,100292.19
2022-08-02T03:54:17.991Z,100287.09
2022-08-02T03:56:45.990Z,100284.97
2022-08-02T03:59:15.061Z,100275.94
2022-08-02T04:01:42.872Z,100276.06
2022-08-02T04:04:10.609Z,100280.38
2022-08-02T04:06:40.091Z,100273.03
2022-08-02T04:09:09.929Z,100269.75
2022-08-02T04:11:38.083Z,100259.09
2022-08-02T04:14:11.091Z,100257.25
2022-08-02T04:16:56.054Z,100253.41
2022-08-02T04:19:28.161Z,100259.00
2022-08-02T04:21:57.982Z,100247.28
2022-08-02T04:24:32.126Z,100241.78
2022-08-02T04:27:19.118Z,100236.97
2022-08-02T04:29:49.100Z,100234.41
2022-08-02T04:32:17.785Z,100230.66
2022-08-02T04:35:17.583Z,100223.84
2022-08-02T04:37:37.903Z,100219.34
2022-08-02T04:40:15.636Z,100211.19
2022-08-02T04:42:43.277Z,100220.47
2022-08-02T04:45:16.647Z,100215.94
2022-08-02T04:48:03.494Z,100216.00
2022-08-02T04:50:33.945Z,100220.38
2022-08-02T04:53:01.813Z,100235.72
2022-08-02T04:55:30.220Z,100236.44
2022-08-02T04:57:59.118Z,100234.00
2022-08-02T05:00:28.689Z,100228.47
2022-08-02T05:02:56.850Z,100236.34
2022-08-02T05:05:24.992Z,100224.75
2022-08-02T05:07:52.944Z,100222.28
2022-08-02T05:10:21.268Z,100220.56
2022-08-02T05:12:49.750Z,100226.25
2022-08-02T05:15:18.695Z,100228.63
2022-08-02T05:17:48.564Z,100232.31
2022-08-02T05:20:18.270Z,100230.25
2022-08-02T05:22:46.624Z,100243.34
2022-08-02T05:25:15.181Z,100241.50
2022-08-02T05:27:43.030Z,100243.03
2022-08-02T05:30:11.578Z,100234.31
2022-08-02T05:32:52.751Z,100236.13
2022-08-02T05:35:22.441Z,100245.72
2022-08-02T05:37:51.634Z,100254.00
2022-08-02T05:40:25.587Z,100250.38
2022-08-02T05:42:56.876Z,100246.25
2022-08-02T05:45:24.807Z,100240.91
2022-08-02T05:47:52.679Z,100238.91
2022-08-02T05:50:20.873Z,100236.28
2022-08-02T05:52:48.357Z,100238.47
2022-08-02T05:55:28.433Z,100228.44
2022-08-02T05:58:35.001Z,100217.84
2022-08-02T06:01:04.102Z,100219.53
2022-08-02T06:03:54.219Z,100222.09
2022-08-02T06:06:25.624Z,100224.16
2022-08-02T06:09:06.785Z,100224.19
2022-08-02T06:11:38.134Z,100225.84
2022-08-02T06:14:07.836Z,100218.16
2022-08-02T06:16:42.193Z,100217.16
2022-08-02T06:19:12.551Z,100209.94
2022-08-02T06:22:31.512Z,100210.97
2022-08-02T06:24:33.661Z,100203.63
2022-08-02T06:27:02.938Z,100205.66
2022-08-02T06:29:38.378Z,100212.75
2022-08-02T06:32:07.411Z,100211.09
2022-08-02T06:34:41.296Z,100215.09
2022-08-02T06:37:27.590Z,100224.53
2022-08-02T06:40:07.053Z,100224.19
2022-08-02T06:42:50.841Z,100214.63
2022-08-02T06:45:18.596Z,100203.75
2022-08-02T06:47:46.275Z,100207.09
2022-08-02T06:50:14.083Z,100199.88
2022-08-02T06:52:41.896Z,100193.47
2022-08-02T06:55:09.941Z,100199.38
2022-08-02T06:57:37.594Z,100203.75
2022-08-02T07:00:09.387Z,100208.97
2022-08-02T07:02:37.426Z,100212.50
2022-08-02T07:05:05.959Z,100206.78
2022-08-02T07:07:33.957Z,100204.94
2022-08-02T07:10:02.090Z,100202.78
2022-08-02T07:12:31.938Z,100201.41
2022-08-02T07:15:00.607Z,100196.34
2022-08-02T07:17:29.073Z,100201.75
2022-08-02T07:19:57.740Z,100214.16
2022-08-02T07:22:27.332Z,100206.72
2022-08-02T07:24:57.271Z,100222.56
2022-08-02T07:27:26.097Z,100217.97
2022-08-02T07:29:54.779Z,100224.88
2022-08-02T07:32:26.348Z,100220.50
2022-08-02T07:34:55.607Z,100219.59
2022-08-02T07:37:52.851Z,100222.75
2022-08-02T07:40:15.373Z,100223.53
2022-08-02T07:43:05.414Z,100210.56
2022-08-02T07:45:35.689Z,100219.72
2022-08-02T07:48:04.330Z,100214.00
2022-08-02T07:50:31.979Z,100219.53
2022-08-02T07:52:59.881Z,100227.13
2022-08-02T07:55:35.259Z,100223.75
2022-08-02T07:58:11.243Z,100225.66
2022-08-02T08:00:45.168Z,100221.53
2022-08-02T08:03:13.304Z,100226.03
2022-08-02T08:05:41.202Z,100232.50
2022-08-02T08:08:11.265Z,100227.81
2022-08-02T08:10:43.111Z,100225.22
2022-08-02T08:13:10.848Z,100223.41
2022-08-02T08:15:38.553Z,100222.09
2022-08-02T08:18:06.269Z,100224.94
2022-08-02T08:20:33.947Z,100234.97
2022-08-02T08:23:01.837Z,100238.53
2022-08-02T08:25:29.861Z,100237.63
2022-08-02T08:27:57.656Z,100234.25
2022-08-02T08:30:25.424Z,100222.59
2022-08-02T08:32:53.112Z,100229.38
2022-08-02T08:35:20.960Z,100237.97
2022-08-02T08:37:48.555Z,100243.88
2022-08-02T08:40:19.368Z,100236.50
2022-08-02T08:42:47.911Z,100237.81
2022-08-02T08:45:18.104Z,100236.69
2022-08-02T08:47:51.380Z,100242.47
2022-08-02T08:50:26.090Z,100252.53
2022-08-02T08:53:04.349Z,100256.06
2022-08-02T08:55:34.861Z,100256.84
2022-08-02T08:58:04.345Z,100261.22
2022-08-02T09:00:32.746Z,100254.78
2022-08-02T09:03:03.781Z,100254.19
2022-08-02T09:05:34.266Z,100262.22
2022-08-02T09:08:02.214Z,100257.47
2022-08-02T09:10:41.668Z,100256.16
2022-08-02T09:13:38.893Z,100248.75
2022-08-02T09:16:12.254Z,100261.59
2022-08-02T09:18:44.895Z,100260.19
2022-08-02T09:21:15.207Z,100267.28
2022-08-02T09:23:44.363Z,100267.06
2022-08-02T09:26:14.539Z,100267.06
2022-08-02T09:28:46.238Z,100266.72
2022-08-02T09:31:21.839Z,100266.25
2022-08-02T09:33:58.756Z,100278.25
2022-08-02T09:36:28.308Z,100277.97
2022-08-02T09:38:57.780Z,100273.78
2022-08-02T09:41:26.813Z,100275.47
2022-08-02T09:44:04.879Z,100282.19
2022-08-02T09:46:39.510Z,100285.47
2022-08-02T09:49:10.067Z,100279.19
2022-08-02T09:51:50.368Z,100276.50
2022-08-02T09:54:24.014Z,100281.84
2022-08-02T09:57:00.962Z,100285.00
2022-08-02T09:59:30.942Z,100291.34
2022-08-02T10:02:02.586Z,100285.75
2022-08-02T10:04:34.096Z,100283.75
2022-08-02T10:07:05.885Z,100277.13
2022-08-02T10:09:33.999Z,100277.88
2022-08-02T10:12:03.406Z,100265.75
2022-08-02T10:14:37.572Z,100267.50
2022-08-02T10:17:06.796Z,100268.91
2022-08-02T10:20:00.441Z,100264.34
2022-08-02T10:22:26.316Z,100267.75
2022-08-02T10:24:54.191Z,100266.13
2022-08-02T10:27:25.214Z,100255.13
2022-08-02T10:29:56.464Z,100248.69
2022-08-02T10:32:31.507Z,100245.91
2022-08-02T10:35:20.222Z,100254.13
2022-08-02T10:38:03.522Z,100260.31
2022-08-02T10:40:51.612Z,100254.03
2022-08-02T10:43:31.504Z,100264.97
2022-08-02T10:46:23.825Z,100260.91
2022-08-02T10:49:24.030Z,100257.19
2022-08-02T10:51:54.845Z,100249.25
2022-08-02T10:54:33.078Z,100252.38
2022-08-02T10:57:01.733Z,100252.97
2022-08-02T10:59:37.122Z,100257.09
2022-08-02T11:02:06.473Z,100245.13
2022-08-02T11:04:37.243Z,100240.16
2022-08-02T11:07:12.186Z,100238.41
2022-08-02T11:09:45.044Z,100231.59
2022-08-02T11:12:18.226Z,100235.59
2022-08-02T11:15:07.544Z,100234.59
2022-08-02T11:17:55.489Z,100228.13
2022-08-02T11:20:24.802Z,100228.91
2022-08-02T11:22:53.089Z,100236.63
2022-08-02T11:25:29.679Z,100217.09
2022-08-02T11:28:11.257Z,100218.66
2022-08-02T11:30:39.554Z,100225.78
2022-08-02T11:33:07.200Z,100227.84
2022-08-02T11:35:37.765Z,100221.25
2022-08-02T11:38:17.836Z,100224.28
2022-08-02T11:40:47.893Z,100224.22
2022-08-02T11:43:20.527Z,100211.56
2022-08-02T11:45:50.225Z,100211.28
2022-08-02T11:48:41.726Z,100209.19
2022-08-02T11:51:17.333Z,100205.44
2022-08-02T11:53:58.906Z,100205.53
2022-08-02T11:56:28.622Z,100198.13
2022-08-02T11:59:10.154Z,100187.69
2022-08-02T12:01:45.067Z,100192.38
2022-08-02T12:04:18.718Z,100192.94
2022-08-02T12:06:56.152Z,100184.63
2022-08-02T12:09:28.110Z,100184.47
2022-08-02T12:11:57.579Z,100177.16
2022-08-02T12:14:27.372Z,100177.53
2022-08-02T12:17:13.857Z,100168.25
2022-08-02T12:19:42.794Z,100165.34
2022-08-02T12:22:14.012Z,100167.84
2022-08-02T12:24:45.684Z,100157.47
2022-08-02T12:27:43.591Z,100157.72
2022-08-02T12:30:13.579Z,100153.88
2022-08-02T12:32:41.849Z,100148.28
2022-08-02T12:35:26.580Z,100155.44
2022-08-02T12:37:56.436Z,100150.25
2022-08-02T12:40:31.014Z,100153.63
2022-08-02T12:43:01.685Z,100148.59
2022-08-02T12:45:40.869Z,100147.75
2022-08-02T12:48:10.256Z,100154.84
2022-08-02T12:50:38.812Z,100144.44
2022-08-02T12:53:09.993Z,100134.13
2022-08-02T12:56:00.807Z,100135.16
2022-08-02T12:58:31.765Z,100133.50
2022-08-02T13:01:01.995Z,100131.84
2022-08-02T13:04:10.774Z,100129.09
2022-08-02T13:09:13.834Z,100139.31
2022-08-02T13:11:43.495Z,100136.00
2022-08-02T13:14:13.401Z,100132.03
2022-08-02T13:16:43.721Z,100136.44
2022-08-02T13:19:13.111Z,100139.31
2022-08-02T13:22:01.892Z,100130.31
2022-08-02T13:24:38.302Z,100139.97
2022-08-02T13:27:09.869Z,100130.16
2022-08-02T13:29:38.233Z,100131.19
2022-08-02T13:32:05.980Z,100133.50
2022-08-02T13:34:33.811Z,100131.88
2022-08-02T13:37:01.469Z,100137.09
2022-08-02T13:39:29.163Z,100130.19
2022-08-02T13:41:56.829Z,100123.88
2022-08-02T13:44:24.403Z,100126.25
2022-08-02T13:46:52.027Z,100131.88
2022-08-02T13:49:21.762Z,100132.28
2022-08-02T13:52:01.067Z,100129.78
2022-08-02T13:54:28.649Z,100133.72
2022-08-02T13:56:56.369Z,100136.06
2022-08-02T13:59:56.571Z,100139.00
2022-08-02T14:02:13.440Z,100136.44
2022-08-02T14:04:47.016Z,100137.69
2022-08-02T14:07:16.213Z,100141.88
2022-08-02T14:09:43.781Z,100149.41
2022-08-02T14:12:13.124Z,100144.81
2022-08-02T14:14:41.123Z,100146.09
2022-08-02T14:17:08.770Z,100147.31
2022-08-02T14:19:36.552Z,100149.84
2022-08-02T14:22:21.411Z,100152.97
2022-08-02T14:24:49.079Z,100154.25
2022-08-02T14:27:16.718Z,100153.75
2022-08-02T14:29:44.405Z,100159.19
2022-08-02T14:32:12.485Z,100163.78
2022-08-02T14:34:40.320Z,100159.44
2022-08-02T14:37:08.153Z,100162.38
2022-08-02T14:39:42.803Z,100160.25
2022-08-02T14:42:23.713Z,100157.53
2022-08-02T14:44:51.374Z,100157.94
2022-08-02T14:47:19.136Z,100166.06
2022-08-02T14:49:50.094Z,100160.63
2022-08-02T14:52:18.887Z,100170.63
2022-08-02T14:54:47.026Z,100178.94
2022-08-02T14:57:15.049Z,100179.81
2022-08-02T14:59:42.820Z,100170.63
2022-08-02T15:02:13.471Z,100177.28
2022-08-02T15:04:43.036Z,100184.78
2022-08-02T15:07:12.653Z,100184.78
2022-08-02T15:09:41.090Z,100182.94
2022-08-02T15:12:10.703Z,100185.00
2022-08-02T15:14:40.209Z,100188.34
2022-08-02T15:17:08.088Z,100188.13
2022-08-02T15:19:57.845Z,100189.00
2022-08-02T15:22:24.052Z,100185.22
2022-08-02T15:24:54.526Z,100190.22
2022-08-02T15:27:22.086Z,100193.13
2022-08-02T15:29:50.061Z,100188.50
2022-08-02T15:32:21.038Z,100190.16
2022-08-02T15:34:48.921Z,100190.38
2022-08-02T15:37:16.652Z,100182.56
2022-08-02T15:39:44.586Z,100188.00
2022-08-02T15:42:12.561Z,100192.72
2022-08-02T15:44:40.309Z,100183.16
2022-08-02T15:47:08.046Z,100186.91
2022-08-02T15:49:40.736Z,100183.75
2022-08-02T15:52:09.771Z,100189.09
2022-08-02T15:54:38.056Z,100188.59
2022-08-02T15:57:05.821Z,100197.09
2022-08-02T15:59:33.909Z,100196.72
2022-08-02T16:02:02.093Z,100187.25
2022-08-02T16:04:29.895Z,100188.06
2022-08-02T16:06:57.485Z,100188.88
2022-08-02T16:09:29.185Z,100197.84
2022-08-02T16:11:56.951Z,100187.78
2022-08-02T16:14:24.506Z,100190.25
2022-08-02T16:16:52.131Z,100194.81
2022-08-02T16:19:47.653Z,100205.78
2022-08-02T16:22:07.564Z,100194.56
2022-08-02T16:24:38.656Z,100198.88
2022-08-02T16:27:08.511Z,100205.13
2022-08-02T16:29:37.496Z,100202.63
2022-08-02T16:32:05.983Z,100195.75
2022-08-02T16:34:56.756Z,100191.72
2022-08-02T16:37:24.030Z,100187.91
2022-08-02T16:39:51.780Z,100199.44
2022-08-02T16:45:07.877Z,100191.00
2022-08-02T16:47:43.332Z,100189.25
2022-08-02T16:50:28.254Z,100194.38
2022-08-02T16:52:57.814Z,100195.91
2022-08-02T16:55:26.236Z,100203.94
2022-08-02T16:57:57.354Z,100206.19
2022-08-02T17:00:24.943Z,100209.84
2022-08-02T17:02:52.455Z,100211.63
2022-08-02T17:05:21.074Z,100209.66
2022-08-02T17:08:15.352Z,100210.94
2022-08-02T17:10:38.536Z,100214.22
2022-08-02T17:13:11.392Z,100222.50
2022-08-02T17:16:08.100Z,100227.75
2022-08-02T17:18:31.418Z,100222.50
2022-08-02T17:20:59.088Z,100223.72
2022-08-02T17:24:05.659Z,100221.75
2022-08-02T17:26:15.018Z,100220.47
2022-08-02T17:29:16.921Z,100224.75
2022-08-02T17:31:42.124Z,100239.19
2022-08-02T17:34:10.859Z,100234.63
2022-08-02T17:36:39.592Z,100241.91
2022-08-02T17:39:08.325Z,100237.69
2022-08-02T17:41:48.901Z,100246.72
2022-08-02T17:44:36.584Z,100252.88
2022-08-02T17:47:11.643Z,100263.22
2022-08-02T17:49:44.262Z,100262.19
2022-08-02T17:52:50.948Z,100261.78
2022-08-02T17:55:10.902Z,100260.44
2022-08-02T17:57:57.532Z,100264.63
2022-08-02T18:00:37.747Z,100263.44
2022-08-02T18:03:10.026Z,100266.50
2022-08-02T18:05:41.615Z,100275.03
2022-08-02T18:08:23.609Z,100275.59
2022-08-02T18:10:53.700Z,100274.91
2022-08-02T18:13:22.323Z,100268.22
2022-08-02T18:15:57.061Z,100270.66
2022-08-02T18:18:29.870Z,100262.97
2022-08-02T18:21:22.145Z,100255.75
2022-08-02T18:23:58.566Z,100255.06
2022-08-02T18:26:28.470Z,100255.06
2022-08-02T18:28:57.796Z,100269.78
2022-08-02T18:31:29.374Z,100263.16
2022-08-02T18:34:07.816Z,100264.06
2022-08-02T18:36:35.524Z,100275.63
2022-08-02T18:39:08.121Z,100269.13
2022-08-02T18:41:36.619Z,100259.63
2022-08-02T18:44:05.766Z,100260.00
2022-08-02T18:46:33.472Z,100262.31
2022-08-02T18:49:06.787Z,100252.16
2022-08-02T18:51:43.153Z,100263.94
2022-08-02T18:54:10.924Z,100256.28
2022-08-02T18:56:38.878Z,100251.84
2022-08-02T18:59:07.706Z,100261.84
2022-08-02T19:01:46.598Z,100252.06
2022-08-02T19:04:27.818Z,100254.09
2022-08-02T19:07:07.614Z,100265.97
2022-08-02T19:09:40.014Z,100262.63
2022-08-02T19:12:08.979Z,100263.34
2022-08-02T19:14:38.116Z,100267.75
2022-08-02T19:17:53.233Z,100264.22
2022-08-02T19:19:53.488Z,100267.94
2022-08-02T19:22:23.961Z,100271.56
2022-08-02T19:25:00.195Z,100276.13
2022-08-02T19:27:32.748Z,100277.00
2022-08-02T19:30:07.673Z,100283.78
2022-08-02T19:32:42.588Z,100284.47
2022-08-02T19:35:30.895Z,100280.75
2022-08-02T19:38:07.904Z,100279.91
2022-08-02T19:40:38.773Z,100267.75
2022-08-02T19:44:24.726Z,100265.88
2022-08-02T19:45:57.085Z,100268.94
2022-08-02T19:48:25.372Z,100266.25
2022-08-02T19:50:55.948Z,100271.16
2022-08-02T19:53:29.072Z,100267.31
2022-08-02T19:56:20.578Z,100262.56
2022-08-02T19:58:53.647Z,100263.91
2022-08-02T20:01:28.214Z,100263.91
2022-08-02T20:04:06.934Z,100261.56
2022-08-02T20:06:34.623Z,100257.69
2022-08-02T20:09:04.818Z,100261.72
2022-08-02T20:11:34.641Z,100252.13
2022-08-02T20:14:04.792Z,100262.59
2022-08-02T20:16:36.593Z,100260.38
2022-08-02T20:19:09.278Z,100259.53
2022-08-02T20:21:42.041Z,100270.31
2022-08-02T20:24:11.893Z,100262.41
2022-08-02T20:26:47.912Z,100261.22
2022-08-02T20:29:42.368Z,100265.78
2022-08-02T20:32:05.875Z,100258.53
2022-08-02T20:34:36.204Z,100259.53
2022-08-02T20:38:01.283Z,100258.53
2022-08-02T20:39:53.726Z,100251.63
2022-08-02T20:42:23.216Z,100255.34
2022-08-02T20:44:55.694Z,100246.09
2022-08-02T20:47:38.856Z,100246.25
2022-08-02T20:50:31.722Z,100258.72
2022-08-02T20:53:00.902Z,100266.81
2022-08-02T20:55:31.058Z,100261.91
2022-08-02T20:58:04.570Z,100260.38
2022-08-02T21:00:32.743Z,100264.75
2022-08-02T21:03:02.621Z,100266.13
2022-08-02T21:05:54.062Z,100272.19
2022-08-02T21:08:21.293Z,100262.44
2022-08-02T21:10:51.942Z,100256.84
2022-08-02T21:13:22.904Z,100243.91
2022-08-02T21:15:56.154Z,100245.06
2022-08-02T21:18:39.775Z,100245.06
2022-08-02T21:21:10.276Z,100241.69
2022-08-02T21:23:44.998Z,100241.69
2022-08-02T21:26:19.998Z,100239.19
2022-08-02T21:28:55.829Z,100247.75
2022-08-02T21:31:23.401Z,100243.72
2022-08-02T21:34:00.347Z,100254.66
2022-08-02T21:36:31.843Z,100252.16
2022-08-02T21:39:08.890Z,100251.50
2022-08-02T21:41:46.522Z,100247.13
2022-08-02T21:44:16.733Z,100248.16
2022-08-02T21:46:49.239Z,100249.16
2022-08-02T21:49:20.215Z,100261.97
2022-08-02T21:51:50.323Z,100267.19
2022-08-02T21:54:20.985Z,100265.69
2022-08-02T21:56:52.011Z,100267.69
2022-08-02T21:59:25.496Z,100267.88
2022-08-02T22:01:57.692Z,100269.75
2022-08-02T22:04:26.263Z,100273.09
2022-08-02T22:06:55.311Z,100274.78
2022-08-02T22:09:43.726Z,100265.69
2022-08-02T22:12:17.562Z,100268.72
2022-08-02T22:14:54.979Z,100277.47
2022-08-02T22:17:51.095Z,100284.88
2022-08-02T22:20:19.756Z,100281.50
2022-08-02T22:22:52.478Z,100281.03
2022-08-02T22:25:26.431Z,100288.88
2022-08-02T22:28:37.185Z,100278.78
2022-08-02T22:30:54.831Z,100286.84
2022-08-02T22:33:46.954Z,100282.81
2022-08-02T22:36:30.665Z,100276.28
2022-08-02T22:38:59.001Z,100274.72
2022-08-02T22:42:05.610Z,100274.25
2022-08-02T22:44:18.619Z,100276.09
2022-08-02T22:46:50.205Z,100273.41
2022-08-02T22:49:38.670Z,100279.75
2022-08-02T22:52:05.901Z,100278.25
2022-08-02T22:54:34.394Z,100284.47
2022-08-02T22:57:02.128Z,100281.44
2022-08-02T22:58:41.833Z,100186.84
2022-08-02T22:59:39.021Z,100283.13
2022-08-02T23:02:08.596Z,100288.00
2022-08-02T23:04:36.991Z,100276.03
2022-08-02T23:07:05.464Z,100282.59
2022-08-02T23:09:33.642Z,100277.06
2022-08-02T23:12:01.200Z,100288.47
2022-08-02T23:14:29.172Z,100278.72
2022-08-02T23:17:15.405Z,100288.47
2022-08-02T23:19:52.079Z,100280.75
2022-08-02T23:22:24.242Z,100284.44
2022-08-02T23:24:59.188Z,100280.72
2022-08-02T23:27:26.933Z,100278.72
2022-08-02T23:29:55.092Z,100278.72
2022-08-02T23:32:25.649Z,100278.19
2022-08-02T23:34:58.188Z,100284.75
2022-08-02T23:37:25.886Z,100290.31
2022-08-02T23:39:53.540Z,100290.13
2022-08-02T23:42:23.306Z,100290.97
2022-08-02T23:44:52.178Z,100291.78
2022-08-02T23:47:20.538Z,100288.09
2022-08-02T23:49:48.214Z,100283.41
2022-08-02T23:52:15.891Z,100283.56
2022-08-02T23:54:43.652Z,100282.41
2022-08-02T23:57:20.390Z,100289.47
2022-08-02T23:59:51.172Z,100288.28
